Saint Clair Beach, Canada
Current Conditions -  °F | °C
As of 7:00 PM on Friday 19 Dec 2014 (Local Time) from CYQG Reporting Station
Clear Clear  
Wind Chill: 14°   Ceiling: Unl
Heat Index: 23°   Visibility: 15mi
Dew Point: 18°   Wind: 8mph
Humidity: 80%   Direction: 260°W
Pressure: 30.32"   Gusts: NA
Location:  42.32°N, 82.85°W
Report Text: CYQG 200000Z 26007KT 15SM SKC M05/M08 A3032 RMK SLP276
Loading
Personal Weather Stations






























Interactive Weather Map New forecast layout! Learn more

10-Day Weather Forecast

Advertisements
Track Severe Weather on mobile